sensor_id;sensor_type;location;lat;lon;timestamp;P1;durP1;ratioP1;P2;durP2;ratioP2
57113;SDS011;42994;51.606;9.988;2024-03-22T00:02:09;20.85;;;12.43;;
57113;SDS011;42994;51.606;9.988;2024-03-22T00:04:35;18.02;;;12.35;;
57113;SDS011;42994;51.606;9.988;2024-03-22T00:07:01;22.95;;;13.50;;
57113;SDS011;42994;51.606;9.988;2024-03-22T00:09:29;22.58;;;12.30;;
57113;SDS011;42994;51.606;9.988;2024-03-22T00:11:55;21.50;;;13.23;;
57113;SDS011;42994;51.606;9.988;2024-03-22T00:14:22;22.88;;;12.70;;
57113;SDS011;42994;51.606;9.988;2024-03-22T00:16:47;18.73;;;12.88;;
57113;SDS011;42994;51.606;9.988;2024-03-22T00:19:16;22.25;;;12.88;;
57113;SDS011;42994;51.606;9.988;2024-03-22T00:21:42;20.02;;;11.98;;
57113;SDS011;42994;51.606;9.988;2024-03-22T00:24:08;19.75;;;12.27;;
57113;SDS011;42994;51.606;9.988;2024-03-22T00:26:34;21.45;;;12.00;;
57113;SDS011;42994;51.606;9.988;2024-03-22T00:29:01;21.10;;;12.05;;
57113;SDS011;42994;51.606;9.988;2024-03-22T00:31:27;20.92;;;12.52;;
57113;SDS011;42994;51.606;9.988;2024-03-22T00:33:54;18.75;;;12.23;;
57113;SDS011;42994;51.606;9.988;2024-03-22T00:36:21;19.15;;;11.77;;
57113;SDS011;42994;51.606;9.988;2024-03-22T00:38:48;17.90;;;12.63;;
57113;SDS011;42994;51.606;9.988;2024-03-22T00:41:14;19.77;;;13.27;;
57113;SDS011;42994;51.606;9.988;2024-03-22T00:43:41;21.50;;;12.10;;
57113;SDS011;42994;51.606;9.988;2024-03-22T00:46:06;25.45;;;12.02;;
57113;SDS011;42994;51.606;9.988;2024-03-22T00:48:34;19.75;;;11.98;;
57113;SDS011;42994;51.606;9.988;2024-03-22T00:51:00;17.30;;;11.65;;
57113;SDS011;42994;51.606;9.988;2024-03-22T00:53:28;17.15;;;11.20;;
57113;SDS011;42994;51.606;9.988;2024-03-22T00:55:54;17.73;;;11.35;;
57113;SDS011;42994;51.606;9.988;2024-03-22T00:58:24;18.25;;;12.05;;
57113;SDS011;42994;51.606;9.988;2024-03-22T01:00:50;18.05;;;12.60;;
57113;SDS011;42994;51.606;9.988;2024-03-22T01:03:17;16.17;;;11.80;;
57113;SDS011;42994;51.606;9.988;2024-03-22T01:05:43;22.10;;;11.85;;
57113;SDS011;42994;51.606;9.988;2024-03-22T01:08:10;19.65;;;12.55;;
57113;SDS011;42994;51.606;9.988;2024-03-22T01:10:37;16.77;;;11.07;;
57113;SDS011;42994;51.606;9.988;2024-03-22T01:13:04;17.33;;;11.77;;
57113;SDS011;42994;51.606;9.988;2024-03-22T01:15:30;16.42;;;10.93;;
57113;SDS011;42994;51.606;9.988;2024-03-22T01:17:56;19.02;;;12.32;;
57113;SDS011;42994;51.606;9.988;2024-03-22T01:20:22;18.60;;;12.23;;
57113;SDS011;42994;51.606;9.988;2024-03-22T01:22:50;23.30;;;13.57;;
57113;SDS011;42994;51.606;9.988;2024-03-22T01:25:15;17.42;;;12.20;;
57113;SDS011;42994;51.606;9.988;2024-03-22T01:27:44;17.73;;;11.70;;
57113;SDS011;42994;51.606;9.988;2024-03-22T01:30:10;19.52;;;11.90;;
57113;SDS011;42994;51.606;9.988;2024-03-22T01:32:37;20.65;;;12.60;;
57113;SDS011;42994;51.606;9.988;2024-03-22T01:35:03;18.40;;;12.40;;
57113;SDS011;42994;51.606;9.988;2024-03-22T01:37:30;17.65;;;11.93;;
57113;SDS011;42994;51.606;9.988;2024-03-22T01:39:56;18.95;;;12.80;;
57113;SDS011;42994;51.606;9.988;2024-03-22T01:42:23;19.05;;;12.13;;
57113;SDS011;42994;51.606;9.988;2024-03-22T01:44:50;19.90;;;12.00;;
57113;SDS011;42994;51.606;9.988;2024-03-22T01:47:17;20.00;;;12.00;;
57113;SDS011;42994;51.606;9.988;2024-03-22T01:49:43;20.17;;;12.38;;
57113;SDS011;42994;51.606;9.988;2024-03-22T01:52:10;18.77;;;11.75;;
57113;SDS011;42994;51.606;9.988;2024-03-22T01:54:36;20.75;;;12.60;;
57113;SDS011;42994;51.606;9.988;2024-03-22T01:57:02;19.45;;;13.07;;
57113;SDS011;42994;51.606;9.988;2024-03-22T01:59:28;23.25;;;12.95;;
57113;SDS011;42994;51.606;9.988;2024-03-22T02:01:58;19.08;;;12.90;;
57113;SDS011;42994;51.606;9.988;2024-03-22T02:04:24;19.65;;;11.82;;
57113;SDS011;42994;51.606;9.988;2024-03-22T02:06:51;18.92;;;13.02;;
57113;SDS011;42994;51.606;9.988;2024-03-22T02:09:17;21.60;;;13.38;;
57113;SDS011;42994;51.606;9.988;2024-03-22T02:11:46;23.60;;;13.07;;
57113;SDS011;42994;51.606;9.988;2024-03-22T02:14:12;25.50;;;15.15;;
57113;SDS011;42994;51.606;9.988;2024-03-22T02:16:39;25.05;;;13.88;;
57113;SDS011;42994;51.606;9.988;2024-03-22T02:19:07;24.95;;;15.23;;
57113;SDS011;42994;51.606;9.988;2024-03-22T02:21:33;23.55;;;15.18;;
57113;SDS011;42994;51.606;9.988;2024-03-22T02:24:01;27.15;;;15.75;;
57113;SDS011;42994;51.606;9.988;2024-03-22T02:26:27;23.95;;;15.07;;
57113;SDS011;42994;51.606;9.988;2024-03-22T02:28:53;23.92;;;15.70;;
57113;SDS011;42994;51.606;9.988;2024-03-22T02:31:20;27.08;;;15.82;;
57113;SDS011;42994;51.606;9.988;2024-03-22T02:33:46;30.77;;;15.25;;
57113;SDS011;42994;51.606;9.988;2024-03-22T02:36:13;26.67;;;16.90;;
57113;SDS011;42994;51.606;9.988;2024-03-22T02:38:38;29.23;;;17.08;;
57113;SDS011;42994;51.606;9.988;2024-03-22T02:41:06;37.63;;;16.95;;
57113;SDS011;42994;51.606;9.988;2024-03-22T02:43:32;29.00;;;16.23;;
57113;SDS011;42994;51.606;9.988;2024-03-22T02:45:59;30.00;;;16.70;;
57113;SDS011;42994;51.606;9.988;2024-03-22T02:48:25;27.73;;;16.77;;
57113;SDS011;42994;51.606;9.988;2024-03-22T02:50:54;27.70;;;17.20;;
57113;SDS011;42994;51.606;9.988;2024-03-22T02:53:21;28.25;;;16.98;;
57113;SDS011;42994;51.606;9.988;2024-03-22T02:55:47;29.75;;;16.58;;
57113;SDS011;42994;51.606;9.988;2024-03-22T02:58:14;29.38;;;17.27;;
57113;SDS011;42994;51.606;9.988;2024-03-22T03:00:43;29.88;;;18.00;;
57113;SDS011;42994;51.606;9.988;2024-03-22T03:03:09;29.58;;;17.83;;
57113;SDS011;42994;51.606;9.988;2024-03-22T03:05:35;31.75;;;17.60;;
57113;SDS011;42994;51.606;9.988;2024-03-22T03:08:01;34.25;;;18.83;;
57113;SDS011;42994;51.606;9.988;2024-03-22T03:10:28;32.47;;;18.50;;
57113;SDS011;42994;51.606;9.988;2024-03-22T03:12:55;33.22;;;18.75;;
57113;SDS011;42994;51.606;9.988;2024-03-22T03:15:23;32.85;;;17.77;;
57113;SDS011;42994;51.606;9.988;2024-03-22T03:17:49;31.58;;;17.83;;
57113;SDS011;42994;51.606;9.988;2024-03-22T03:20:17;31.45;;;18.05;;
57113;SDS011;42994;51.606;9.988;2024-03-22T03:22:42;33.55;;;18.90;;
57113;SDS011;42994;51.606;9.988;2024-03-22T03:25:09;35.63;;;18.75;;
57113;SDS011;42994;51.606;9.988;2024-03-22T03:27:35;38.70;;;19.77;;
57113;SDS011;42994;51.606;9.988;2024-03-22T03:30:02;37.22;;;20.25;;
57113;SDS011;42994;51.606;9.988;2024-03-22T03:32:29;35.08;;;19.92;;
57113;SDS011;42994;51.606;9.988;2024-03-22T03:34:56;40.35;;;19.92;;
57113;SDS011;42994;51.606;9.988;2024-03-22T03:37:22;34.63;;;19.88;;
57113;SDS011;42994;51.606;9.988;2024-03-22T03:39:49;34.22;;;19.10;;
57113;SDS011;42994;51.606;9.988;2024-03-22T03:42:14;37.95;;;21.15;;
57113;SDS011;42994;51.606;9.988;2024-03-22T03:44:41;36.80;;;20.90;;
57113;SDS011;42994;51.606;9.988;2024-03-22T03:47:07;40.28;;;20.48;;
57113;SDS011;42994;51.606;9.988;2024-03-22T03:49:35;37.75;;;19.30;;
57113;SDS011;42994;51.606;9.988;2024-03-22T03:52:01;39.63;;;21.75;;
57113;SDS011;42994;51.606;9.988;2024-03-22T03:54:28;42.05;;;21.60;;
57113;SDS011;42994;51.606;9.988;2024-03-22T03:56:54;38.55;;;21.50;;
57113;SDS011;42994;51.606;9.988;2024-03-22T03:59:21;36.83;;;20.63;;
57113;SDS011;42994;51.606;9.988;2024-03-22T04:01:46;40.30;;;21.42;;
57113;SDS011;42994;51.606;9.988;2024-03-22T04:04:14;40.15;;;21.73;;
57113;SDS011;42994;51.606;9.988;2024-03-22T04:06:41;40.25;;;21.00;;
57113;SDS011;42994;51.606;9.988;2024-03-22T04:09:09;40.70;;;20.00;;
57113;SDS011;42994;51.606;9.988;2024-03-22T04:11:36;41.80;;;21.60;;
57113;SDS011;42994;51.606;9.988;2024-03-22T04:14:02;42.10;;;23.73;;
57113;SDS011;42994;51.606;9.988;2024-03-22T04:16:30;44.38;;;22.42;;
57113;SDS011;42994;51.606;9.988;2024-03-22T04:18:56;43.55;;;24.13;;
57113;SDS011;42994;51.606;9.988;2024-03-22T04:21:23;47.80;;;23.17;;
57113;SDS011;42994;51.606;9.988;2024-03-22T04:23:50;48.88;;;24.48;;
57113;SDS011;42994;51.606;9.988;2024-03-22T04:26:17;43.05;;;23.90;;
57113;SDS011;42994;51.606;9.988;2024-03-22T04:28:42;42.72;;;23.45;;
57113;SDS011;42994;51.606;9.988;2024-03-22T04:31:09;42.85;;;23.52;;
57113;SDS011;42994;51.606;9.988;2024-03-22T04:33:35;42.75;;;23.63;;
57113;SDS011;42994;51.606;9.988;2024-03-22T04:36:03;45.35;;;24.08;;
57113;SDS011;42994;51.606;9.988;2024-03-22T04:38:30;55.25;;;25.77;;
57113;SDS011;42994;51.606;9.988;2024-03-22T04:40:58;50.30;;;25.45;;
57113;SDS011;42994;51.606;9.988;2024-03-22T04:43:26;52.60;;;25.85;;
57113;SDS011;42994;51.606;9.988;2024-03-22T04:45:54;51.50;;;25.85;;
57113;SDS011;42994;51.606;9.988;2024-03-22T04:48:21;52.95;;;25.58;;
57113;SDS011;42994;51.606;9.988;2024-03-22T04:50:48;45.75;;;23.70;;
57113;SDS011;42994;51.606;9.988;2024-03-22T04:53:15;53.83;;;28.02;;
57113;SDS011;42994;51.606;9.988;2024-03-22T04:55:42;52.53;;;25.95;;
57113;SDS011;42994;51.606;9.988;2024-03-22T04:58:12;51.38;;;28.10;;
57113;SDS011;42994;51.606;9.988;2024-03-22T05:00:39;56.97;;;29.05;;
57113;SDS011;42994;51.606;9.988;2024-03-22T05:03:06;51.85;;;27.70;;
57113;SDS011;42994;51.606;9.988;2024-03-22T05:05:32;48.97;;;25.33;;
57113;SDS011;42994;51.606;9.988;2024-03-22T05:07:58;47.75;;;25.55;;
57113;SDS011;42994;51.606;9.988;2024-03-22T05:10:24;50.47;;;25.90;;
57113;SDS011;42994;51.606;9.988;2024-03-22T05:12:51;56.55;;;26.20;;
57113;SDS011;42994;51.606;9.988;2024-03-22T05:15:18;57.28;;;25.75;;
57113;SDS011;42994;51.606;9.988;2024-03-22T05:17:45;56.95;;;26.13;;
57113;SDS011;42994;51.606;9.988;2024-03-22T05:20:11;52.47;;;26.35;;
57113;SDS011;42994;51.606;9.988;2024-03-22T05:22:38;51.60;;;26.00;;
57113;SDS011;42994;51.606;9.988;2024-03-22T05:25:05;51.55;;;26.42;;
57113;SDS011;42994;51.606;9.988;2024-03-22T05:27:33;55.60;;;28.23;;
57113;SDS011;42994;51.606;9.988;2024-03-22T05:29:59;54.40;;;26.35;;
57113;SDS011;42994;51.606;9.988;2024-03-22T05:32:27;59.55;;;27.42;;
57113;SDS011;42994;51.606;9.988;2024-03-22T05:34:53;57.65;;;28.08;;
57113;SDS011;42994;51.606;9.988;2024-03-22T05:37:20;52.33;;;24.58;;
57113;SDS011;42994;51.606;9.988;2024-03-22T05:39:45;57.90;;;27.77;;
57113;SDS011;42994;51.606;9.988;2024-03-22T05:42:12;52.40;;;24.98;;
57113;SDS011;42994;51.606;9.988;2024-03-22T05:44:38;58.60;;;27.15;;
57113;SDS011;42994;51.606;9.988;2024-03-22T05:47:05;54.13;;;26.08;;
57113;SDS011;42994;51.606;9.988;2024-03-22T05:49:33;53.60;;;25.52;;
57113;SDS011;42994;51.606;9.988;2024-03-22T05:51:59;59.03;;;27.52;;
57113;SDS011;42994;51.606;9.988;2024-03-22T05:54:25;55.83;;;27.05;;
57113;SDS011;42994;51.606;9.988;2024-03-22T05:56:52;49.17;;;24.20;;
57113;SDS011;42994;51.606;9.988;2024-03-22T05:59:18;48.95;;;24.85;;
57113;SDS011;42994;51.606;9.988;2024-03-22T06:01:45;49.58;;;24.13;;
57113;SDS011;42994;51.606;9.988;2024-03-22T06:04:11;52.15;;;24.83;;
57113;SDS011;42994;51.606;9.988;2024-03-22T06:06:39;54.75;;;25.63;;
57113;SDS011;42994;51.606;9.988;2024-03-22T06:09:05;51.70;;;25.08;;
57113;SDS011;42994;51.606;9.988;2024-03-22T06:11:36;55.40;;;24.60;;
57113;SDS011;42994;51.606;9.988;2024-03-22T06:14:02;52.97;;;25.85;;
57113;SDS011;42994;51.606;9.988;2024-03-22T06:16:29;52.97;;;25.35;;
57113;SDS011;42994;51.606;9.988;2024-03-22T06:18:55;51.38;;;25.45;;
57113;SDS011;42994;51.606;9.988;2024-03-22T06:21:22;49.80;;;25.08;;
57113;SDS011;42994;51.606;9.988;2024-03-22T06:23:51;47.53;;;24.55;;
57113;SDS011;42994;51.606;9.988;2024-03-22T06:26:18;56.03;;;24.50;;
57113;SDS011;42994;51.606;9.988;2024-03-22T06:28:44;56.53;;;25.38;;
57113;SDS011;42994;51.606;9.988;2024-03-22T06:31:12;49.13;;;23.48;;
57113;SDS011;42994;51.606;9.988;2024-03-22T06:33:37;47.97;;;25.02;;
57113;SDS011;42994;51.606;9.988;2024-03-22T06:36:04;46.45;;;23.65;;
57113;SDS011;42994;51.606;9.988;2024-03-22T06:38:30;54.38;;;25.15;;
57113;SDS011;42994;51.606;9.988;2024-03-22T06:40:59;46.42;;;24.13;;
57113;SDS011;42994;51.606;9.988;2024-03-22T06:43:25;49.40;;;23.42;;
57113;SDS011;42994;51.606;9.988;2024-03-22T06:45:52;51.75;;;25.27;;
57113;SDS011;42994;51.606;9.988;2024-03-22T06:48:18;52.75;;;24.85;;
57113;SDS011;42994;51.606;9.988;2024-03-22T06:50:45;50.58;;;24.92;;
57113;SDS011;42994;51.606;9.988;2024-03-22T06:53:11;53.97;;;25.27;;
57113;SDS011;42994;51.606;9.988;2024-03-22T06:55:38;49.22;;;24.67;;
57113;SDS011;42994;51.606;9.988;2024-03-22T06:58:05;51.80;;;24.65;;
57113;SDS011;42994;51.606;9.988;2024-03-22T07:00:32;46.20;;;23.02;;
57113;SDS011;42994;51.606;9.988;2024-03-22T07:02:59;45.95;;;23.90;;
57113;SDS011;42994;51.606;9.988;2024-03-22T07:05:29;52.42;;;25.15;;
57113;SDS011;42994;51.606;9.988;2024-03-22T07:07:54;48.90;;;24.05;;
57113;SDS011;42994;51.606;9.988;2024-03-22T07:10:23;45.65;;;22.80;;
57113;SDS011;42994;51.606;9.988;2024-03-22T07:12:53;52.05;;;24.67;;
57113;SDS011;42994;51.606;9.988;2024-03-22T07:15:22;52.03;;;23.90;;
57113;SDS011;42994;51.606;9.988;2024-03-22T07:17:49;44.05;;;23.42;;
57113;SDS011;42994;51.606;9.988;2024-03-22T07:20:16;43.63;;;22.15;;
57113;SDS011;42994;51.606;9.988;2024-03-22T07:22:42;44.40;;;21.85;;
57113;SDS011;42994;51.606;9.988;2024-03-22T07:25:08;48.38;;;23.27;;
57113;SDS011;42994;51.606;9.988;2024-03-22T07:27:34;45.88;;;22.17;;
57113;SDS011;42994;51.606;9.988;2024-03-22T07:30:01;43.10;;;21.73;;
57113;SDS011;42994;51.606;9.988;2024-03-22T07:32:29;41.95;;;22.38;;
57113;SDS011;42994;51.606;9.988;2024-03-22T07:34:56;44.70;;;21.85;;
57113;SDS011;42994;51.606;9.988;2024-03-22T07:37:21;50.30;;;24.15;;
57113;SDS011;42994;51.606;9.988;2024-03-22T07:39:48;47.28;;;22.52;;
57113;SDS011;42994;51.606;9.988;2024-03-22T07:42:14;46.20;;;22.38;;
57113;SDS011;42994;51.606;9.988;2024-03-22T07:44:41;45.42;;;22.38;;
57113;SDS011;42994;51.606;9.988;2024-03-22T07:47:07;40.60;;;22.20;;
57113;SDS011;42994;51.606;9.988;2024-03-22T07:49:35;104.47;;;52.80;;
57113;SDS011;42994;51.606;9.988;2024-03-22T07:52:02;40.15;;;21.30;;
57113;SDS011;42994;51.606;9.988;2024-03-22T07:54:29;38.55;;;20.48;;
57113;SDS011;42994;51.606;9.988;2024-03-22T07:56:55;42.83;;;19.45;;
57113;SDS011;42994;51.606;9.988;2024-03-22T07:59:21;38.92;;;19.45;;
57113;SDS011;42994;51.606;9.988;2024-03-22T08:01:47;40.72;;;21.35;;
57113;SDS011;42994;51.606;9.988;2024-03-22T08:04:14;39.78;;;20.05;;
57113;SDS011;42994;51.606;9.988;2024-03-22T08:06:41;36.63;;;18.35;;
57113;SDS011;42994;51.606;9.988;2024-03-22T08:09:08;38.78;;;19.20;;
57113;SDS011;42994;51.606;9.988;2024-03-22T08:11:34;33.17;;;18.33;;
57113;SDS011;42994;51.606;9.988;2024-03-22T08:14:01;38.03;;;19.40;;
57113;SDS011;42994;51.606;9.988;2024-03-22T08:16:28;36.45;;;19.20;;
57113;SDS011;42994;51.606;9.988;2024-03-22T08:18:55;34.88;;;18.67;;
57113;SDS011;42994;51.606;9.988;2024-03-22T08:21:21;35.70;;;18.83;;
57113;SDS011;42994;51.606;9.988;2024-03-22T08:23:50;31.92;;;18.40;;
57113;SDS011;42994;51.606;9.988;2024-03-22T08:26:16;38.03;;;18.40;;
57113;SDS011;42994;51.606;9.988;2024-03-22T08:28:43;34.08;;;17.92;;
57113;SDS011;42994;51.606;9.988;2024-03-22T08:31:09;32.33;;;16.45;;
57113;SDS011;42994;51.606;9.988;2024-03-22T08:33:36;30.17;;;17.52;;
57113;SDS011;42994;51.606;9.988;2024-03-22T08:36:02;33.83;;;18.38;;
57113;SDS011;42994;51.606;9.988;2024-03-22T08:38:29;38.10;;;16.73;;
57113;SDS011;42994;51.606;9.988;2024-03-22T08:40:56;34.45;;;17.95;;
57113;SDS011;42994;51.606;9.988;2024-03-22T08:43:23;30.50;;;16.13;;
57113;SDS011;42994;51.606;9.988;2024-03-22T08:45:50;30.63;;;17.05;;
57113;SDS011;42994;51.606;9.988;2024-03-22T08:48:17;33.40;;;18.02;;
57113;SDS011;42994;51.606;9.988;2024-03-22T08:50:43;30.23;;;17.52;;
57113;SDS011;42994;51.606;9.988;2024-03-22T08:53:10;32.25;;;15.73;;
57113;SDS011;42994;51.606;9.988;2024-03-22T08:55:36;28.38;;;15.52;;
57113;SDS011;42994;51.606;9.988;2024-03-22T08:58:04;31.25;;;17.13;;
57113;SDS011;42994;51.606;9.988;2024-03-22T09:00:30;30.70;;;16.92;;
57113;SDS011;42994;51.606;9.988;2024-03-22T09:02:57;31.58;;;16.73;;
57113;SDS011;42994;51.606;9.988;2024-03-22T09:05:23;30.63;;;16.27;;
57113;SDS011;42994;51.606;9.988;2024-03-22T09:07:50;29.90;;;16.83;;
57113;SDS011;42994;51.606;9.988;2024-03-22T09:10:18;33.88;;;17.02;;
57113;SDS011;42994;51.606;9.988;2024-03-22T09:12:45;32.53;;;17.48;;
57113;SDS011;42994;51.606;9.988;2024-03-22T09:15:12;27.85;;;16.17;;
57113;SDS011;42994;51.606;9.988;2024-03-22T09:17:39;27.83;;;16.73;;
57113;SDS011;42994;51.606;9.988;2024-03-22T09:20:05;29.92;;;16.05;;
57113;SDS011;42994;51.606;9.988;2024-03-22T09:22:32;30.90;;;16.63;;
57113;SDS011;42994;51.606;9.988;2024-03-22T09:24:58;30.60;;;17.33;;
57113;SDS011;42994;51.606;9.988;2024-03-22T09:27:25;27.52;;;16.67;;
57113;SDS011;42994;51.606;9.988;2024-03-22T09:29:51;29.85;;;16.27;;
57113;SDS011;42994;51.606;9.988;2024-03-22T09:32:19;32.83;;;16.38;;
57113;SDS011;42994;51.606;9.988;2024-03-22T09:34:45;27.00;;;16.25;;
57113;SDS011;42994;51.606;9.988;2024-03-22T09:37:15;31.15;;;17.77;;
57113;SDS011;42994;51.606;9.988;2024-03-22T09:39:41;31.13;;;17.20;;
57113;SDS011;42994;51.606;9.988;2024-03-22T09:42:07;29.73;;;16.92;;
57113;SDS011;42994;51.606;9.988;2024-03-22T09:44:36;28.90;;;16.35;;
57113;SDS011;42994;51.606;9.988;2024-03-22T09:47:07;34.35;;;16.70;;
57113;SDS011;42994;51.606;9.988;2024-03-22T09:49:35;31.45;;;16.70;;
57113;SDS011;42994;51.606;9.988;2024-03-22T09:52:03;28.67;;;16.42;;
57113;SDS011;42994;51.606;9.988;2024-03-22T09:54:29;32.80;;;16.85;;
57113;SDS011;42994;51.606;9.988;2024-03-22T09:56:57;27.55;;;17.35;;
57113;SDS011;42994;51.606;9.988;2024-03-22T09:59:23;30.98;;;16.58;;
57113;SDS011;42994;51.606;9.988;2024-03-22T10:01:50;28.13;;;16.85;;
57113;SDS011;42994;51.606;9.988;2024-03-22T10:04:18;27.98;;;17.77;;
57113;SDS011;42994;51.606;9.988;2024-03-22T10:06:47;28.15;;;17.25;;
57113;SDS011;42994;51.606;9.988;2024-03-22T10:09:13;30.25;;;17.27;;
57113;SDS011;42994;51.606;9.988;2024-03-22T10:11:39;34.53;;;18.00;;
57113;SDS011;42994;51.606;9.988;2024-03-22T10:14:05;27.98;;;17.40;;
57113;SDS011;42994;51.606;9.988;2024-03-22T10:16:33;31.83;;;16.92;;
57113;SDS011;42994;51.606;9.988;2024-03-22T10:18:59;30.70;;;17.88;;
57113;SDS011;42994;51.606;9.988;2024-03-22T10:21:26;29.02;;;17.75;;
57113;SDS011;42994;51.606;9.988;2024-03-22T10:23:55;29.48;;;17.35;;
57113;SDS011;42994;51.606;9.988;2024-03-22T10:26:22;31.40;;;18.60;;
57113;SDS011;42994;51.606;9.988;2024-03-22T10:28:48;29.88;;;16.50;;
57113;SDS011;42994;51.606;9.988;2024-03-22T10:31:15;27.35;;;16.48;;
57113;SDS011;42994;51.606;9.988;2024-03-22T10:33:41;30.17;;;17.10;;
57113;SDS011;42994;51.606;9.988;2024-03-22T10:36:08;26.45;;;16.95;;
57113;SDS011;42994;51.606;9.988;2024-03-22T10:38:35;28.00;;;16.70;;
57113;SDS011;42994;51.606;9.988;2024-03-22T10:41:06;27.05;;;16.60;;
57113;SDS011;42994;51.606;9.988;2024-03-22T10:43:32;32.72;;;16.70;;
57113;SDS011;42994;51.606;9.988;2024-03-22T10:46:00;29.05;;;17.95;;
57113;SDS011;42994;51.606;9.988;2024-03-22T10:48:29;30.85;;;18.23;;
57113;SDS011;42994;51.606;9.988;2024-03-22T10:50:59;29.25;;;17.63;;
57113;SDS011;42994;51.606;9.988;2024-03-22T10:53:27;32.10;;;17.90;;
57113;SDS011;42994;51.606;9.988;2024-03-22T10:55:58;31.33;;;16.23;;
57113;SDS011;42994;51.606;9.988;2024-03-22T10:58:27;30.77;;;17.73;;
57113;SDS011;42994;51.606;9.988;2024-03-22T11:00:55;29.23;;;16.75;;
57113;SDS011;42994;51.606;9.988;2024-03-22T11:03:21;26.15;;;15.45;;
57113;SDS011;42994;51.606;9.988;2024-03-22T11:05:50;29.23;;;16.75;;
57113;SDS011;42994;51.606;9.988;2024-03-22T11:08:23;33.83;;;17.45;;
57113;SDS011;42994;51.606;9.988;2024-03-22T11:10:51;28.80;;;17.38;;
57113;SDS011;42994;51.606;9.988;2024-03-22T11:13:17;30.48;;;16.60;;
57113;SDS011;42994;51.606;9.988;2024-03-22T11:15:48;29.90;;;17.65;;
57113;SDS011;42994;51.606;9.988;2024-03-22T11:18:14;32.35;;;18.60;;
57113;SDS011;42994;51.606;9.988;2024-03-22T11:20:41;28.25;;;17.63;;
57113;SDS011;42994;51.606;9.988;2024-03-22T11:23:08;27.23;;;16.40;;
57113;SDS011;42994;51.606;9.988;2024-03-22T11:25:35;27.88;;;16.92;;
57113;SDS011;42994;51.606;9.988;2024-03-22T11:28:01;29.63;;;16.73;;
57113;SDS011;42994;51.606;9.988;2024-03-22T11:30:28;28.85;;;16.15;;
57113;SDS011;42994;51.606;9.988;2024-03-22T11:32:57;29.70;;;16.20;;
57113;SDS011;42994;51.606;9.988;2024-03-22T11:35:24;24.52;;;15.63;;
57113;SDS011;42994;51.606;9.988;2024-03-22T11:37:50;28.38;;;16.73;;
57113;SDS011;42994;51.606;9.988;2024-03-22T11:40:17;24.90;;;16.13;;
57113;SDS011;42994;51.606;9.988;2024-03-22T11:42:43;31.33;;;16.02;;
57113;SDS011;42994;51.606;9.988;2024-03-22T11:45:13;24.40;;;15.43;;
57113;SDS011;42994;51.606;9.988;2024-03-22T11:47:40;23.08;;;14.75;;
57113;SDS011;42994;51.606;9.988;2024-03-22T11:50:09;24.63;;;14.20;;
57113;SDS011;42994;51.606;9.988;2024-03-22T11:52:39;21.08;;;14.07;;
57113;SDS011;42994;51.606;9.988;2024-03-22T11:55:06;22.70;;;14.65;;
57113;SDS011;42994;51.606;9.988;2024-03-22T11:57:32;23.90;;;15.30;;
57113;SDS011;42994;51.606;9.988;2024-03-22T12:00:00;28.55;;;14.68;;
57113;SDS011;42994;51.606;9.988;2024-03-22T12:02:26;22.60;;;14.15;;
57113;SDS011;42994;51.606;9.988;2024-03-22T12:04:54;21.77;;;14.32;;
57113;SDS011;42994;51.606;9.988;2024-03-22T12:07:21;23.23;;;15.35;;
57113;SDS011;42994;51.606;9.988;2024-03-22T12:09:48;25.42;;;14.75;;
57113;SDS011;42994;51.606;9.988;2024-03-22T12:12:14;26.17;;;14.40;;
57113;SDS011;42994;51.606;9.988;2024-03-22T12:14:40;22.10;;;12.95;;
57113;SDS011;42994;51.606;9.988;2024-03-22T12:17:07;23.55;;;14.43;;
57113;SDS011;42994;51.606;9.988;2024-03-22T12:19:34;20.60;;;13.32;;
57113;SDS011;42994;51.606;9.988;2024-03-22T12:21:59;20.40;;;12.65;;
57113;SDS011;42994;51.606;9.988;2024-03-22T12:24:28;24.65;;;14.35;;
57113;SDS011;42994;51.606;9.988;2024-03-22T12:26:54;22.42;;;14.93;;
57113;SDS011;42994;51.606;9.988;2024-03-22T12:29:21;20.23;;;13.30;;
57113;SDS011;42994;51.606;9.988;2024-03-22T12:31:47;22.10;;;12.85;;
57113;SDS011;42994;51.606;9.988;2024-03-22T12:34:14;21.92;;;12.75;;
57113;SDS011;42994;51.606;9.988;2024-03-22T12:36:40;20.15;;;13.40;;
57113;SDS011;42994;51.606;9.988;2024-03-22T12:39:07;24.00;;;13.50;;
57113;SDS011;42994;51.606;9.988;2024-03-22T12:41:34;30.00;;;13.30;;
57113;SDS011;42994;51.606;9.988;2024-03-22T12:44:01;22.00;;;13.05;;
57113;SDS011;42994;51.606;9.988;2024-03-22T12:46:27;27.50;;;14.95;;
57113;SDS011;42994;51.606;9.988;2024-03-22T12:48:54;19.48;;;13.02;;
57113;SDS011;42994;51.606;9.988;2024-03-22T12:51:20;21.75;;;13.38;;
57113;SDS011;42994;51.606;9.988;2024-03-22T12:53:47;24.40;;;12.65;;
57113;SDS011;42994;51.606;9.988;2024-03-22T12:56:13;23.95;;;13.88;;
57113;SDS011;42994;51.606;9.988;2024-03-22T12:58:41;19.45;;;12.93;;
57113;SDS011;42994;51.606;9.988;2024-03-22T13:01:07;22.13;;;12.82;;
57113;SDS011;42994;51.606;9.988;2024-03-22T13:03:36;19.85;;;12.60;;
57113;SDS011;42994;51.606;9.988;2024-03-22T13:06:02;18.20;;;11.32;;
57113;SDS011;42994;51.606;9.988;2024-03-22T13:08:30;18.75;;;11.98;;
57113;SDS011;42994;51.606;9.988;2024-03-22T13:10:56;15.18;;;10.27;;
57113;SDS011;42994;51.606;9.988;2024-03-22T13:13:23;15.73;;;10.85;;
57113;SDS011;42994;51.606;9.988;2024-03-22T13:15:50;23.38;;;11.27;;
57113;SDS011;42994;51.606;9.988;2024-03-22T13:18:17;21.52;;;11.40;;
57113;SDS011;42994;51.606;9.988;2024-03-22T13:20:43;16.15;;;11.07;;
57113;SDS011;42994;51.606;9.988;2024-03-22T13:23:10;14.55;;;10.88;;
57113;SDS011;42994;51.606;9.988;2024-03-22T13:25:38;16.83;;;10.63;;
57113;SDS011;42994;51.606;9.988;2024-03-22T13:28:05;14.60;;;9.88;;
57113;SDS011;42994;51.606;9.988;2024-03-22T13:30:31;18.20;;;10.80;;
57113;SDS011;42994;51.606;9.988;2024-03-22T13:32:59;16.48;;;9.50;;
57113;SDS011;42994;51.606;9.988;2024-03-22T13:35:25;16.83;;;9.27;;
57113;SDS011;42994;51.606;9.988;2024-03-22T13:37:52;12.48;;;6.60;;
57113;SDS011;42994;51.606;9.988;2024-03-22T13:40:17;12.45;;;7.93;;
57113;SDS011;42994;51.606;9.988;2024-03-22T13:42:44;9.75;;;6.63;;
57113;SDS011;42994;51.606;9.988;2024-03-22T13:45:11;10.43;;;6.28;;
57113;SDS011;42994;51.606;9.988;2024-03-22T13:47:37;13.77;;;7.15;;
57113;SDS011;42994;51.606;9.988;2024-03-22T13:50:07;10.52;;;6.15;;
57113;SDS011;42994;51.606;9.988;2024-03-22T13:52:35;10.10;;;5.78;;
57113;SDS011;42994;51.606;9.988;2024-03-22T13:55:01;13.38;;;6.05;;
57113;SDS011;42994;51.606;9.988;2024-03-22T13:57:28;9.63;;;6.32;;
57113;SDS011;42994;51.606;9.988;2024-03-22T13:59:53;11.55;;;7.63;;
57113;SDS011;42994;51.606;9.988;2024-03-22T14:02:20;14.55;;;8.32;;
57113;SDS011;42994;51.606;9.988;2024-03-22T14:04:47;18.83;;;9.73;;
57113;SDS011;42994;51.606;9.988;2024-03-22T14:07:15;11.93;;;8.60;;
57113;SDS011;42994;51.606;9.988;2024-03-22T14:09:41;24.08;;;10.35;;
57113;SDS011;42994;51.606;9.988;2024-03-22T14:12:08;13.68;;;8.23;;
57113;SDS011;42994;51.606;9.988;2024-03-22T14:14:34;20.35;;;9.43;;
57113;SDS011;42994;51.606;9.988;2024-03-22T14:17:01;18.05;;;9.48;;
57113;SDS011;42994;51.606;9.988;2024-03-22T14:19:27;12.43;;;9.68;;
57113;SDS011;42994;51.606;9.988;2024-03-22T14:21:54;14.65;;;9.60;;